sensor_id;sensor_type;location;lat;lon;timestamp;temperature;humidity
13808;DHT22;40769;51.512;5.494;2023-09-08T00:00:08;22.10;99.90
13808;DHT22;40769;51.512;5.494;2023-09-08T00:02:34;22.20;99.90
13808;DHT22;40769;51.512;5.494;2023-09-08T00:05:00;22.10;99.90
13808;DHT22;40769;51.512;5.494;2023-09-08T00:07:26;22.10;99.90
13808;DHT22;40769;51.512;5.494;2023-09-08T00:09:51;22.10;99.90
13808;DHT22;40769;51.512;5.494;2023-09-08T00:12:17;22.00;99.90
13808;DHT22;40769;51.512;5.494;2023-09-08T00:14:43;22.10;99.90
13808;DHT22;40769;51.512;5.494;2023-09-08T00:17:08;22.00;99.90
13808;DHT22;40769;51.512;5.494;2023-09-08T00:19:34;22.00;99.90
13808;DHT22;40769;51.512;5.494;2023-09-08T00:22:00;22.00;99.90
13808;DHT22;40769;51.512;5.494;2023-09-08T00:24:26;22.00;99.90
13808;DHT22;40769;51.512;5.494;2023-09-08T00:26:52;21.30;99.90
13808;DHT22;40769;51.512;5.494;2023-09-08T00:29:17;21.90;99.90
13808;DHT22;40769;51.512;5.494;2023-09-08T00:31:43;21.90;99.90
13808;DHT22;40769;51.512;5.494;2023-09-08T00:34:09;21.90;99.90
13808;DHT22;40769;51.512;5.494;2023-09-08T00:36:35;21.90;99.90
13808;DHT22;40769;51.512;5.494;2023-09-08T00:39:01;21.90;99.90
13808;DHT22;40769;51.512;5.494;2023-09-08T00:41:27;21.90;99.90
13808;DHT22;40769;51.512;5.494;2023-09-08T00:43:52;21.90;99.90
13808;DHT22;40769;51.512;5.494;2023-09-08T00:46:18;21.90;99.90
13808;DHT22;40769;51.512;5.494;2023-09-08T00:48:44;21.90;99.90
13808;DHT22;40769;51.512;5.494;2023-09-08T00:51:10;21.90;99.90
13808;DHT22;40769;51.512;5.494;2023-09-08T00:53:37;21.80;99.90
13808;DHT22;40769;51.512;5.494;2023-09-08T00:56:03;20.70;99.90
13808;DHT22;40769;51.512;5.494;2023-09-08T00:58:29;21.80;99.90
13808;DHT22;40769;51.512;5.494;2023-09-08T01:00:55;21.80;99.90
13808;DHT22;40769;51.512;5.494;2023-09-08T01:03:23;21.80;99.90
13808;DHT22;40769;51.512;5.494;2023-09-08T01:05:50;21.80;99.90
13808;DHT22;40769;51.512;5.494;2023-09-08T01:08:16;21.80;99.90
13808;DHT22;40769;51.512;5.494;2023-09-08T01:10:43;21.70;99.90
13808;DHT22;40769;51.512;5.494;2023-09-08T01:13:09;21.70;99.90
13808;DHT22;40769;51.512;5.494;2023-09-08T01:15:34;21.60;99.90
13808;DHT22;40769;51.512;5.494;2023-09-08T01:18:00;21.60;99.90
13808;DHT22;40769;51.512;5.494;2023-09-08T01:23:26;21.60;99.90
13808;DHT22;40769;51.512;5.494;2023-09-08T01:26:05;21.60;99.90
13808;DHT22;40769;51.512;5.494;2023-09-08T01:28:33;21.50;99.90
13808;DHT22;40769;51.512;5.494;2023-09-08T01:30:59;21.50;99.90
13808;DHT22;40769;51.512;5.494;2023-09-08T01:33:26;21.50;99.90
13808;DHT22;40769;51.512;5.494;2023-09-08T01:35:52;21.40;99.90
13808;DHT22;40769;51.512;5.494;2023-09-08T01:38:18;21.40;99.90
13808;DHT22;40769;51.512;5.494;2023-09-08T01:40:43;21.40;99.90
13808;DHT22;40769;51.512;5.494;2023-09-08T01:43:09;21.30;99.90
13808;DHT22;40769;51.512;5.494;2023-09-08T01:45:35;21.30;99.90
13808;DHT22;40769;51.512;5.494;2023-09-08T01:48:00;21.30;99.90
13808;DHT22;40769;51.512;5.494;2023-09-08T01:50:26;21.20;99.90
13808;DHT22;40769;51.512;5.494;2023-09-08T01:52:52;21.30;99.90
13808;DHT22;40769;51.512;5.494;2023-09-08T01:55:17;21.20;99.90
13808;DHT22;40769;51.512;5.494;2023-09-08T01:57:44;21.20;99.90
13808;DHT22;40769;51.512;5.494;2023-09-08T02:00:10;21.20;99.90
13808;DHT22;40769;51.512;5.494;2023-09-08T02:02:36;21.10;99.90
13808;DHT22;40769;51.512;5.494;2023-09-08T02:05:02;21.10;99.90
13808;DHT22;40769;51.512;5.494;2023-09-08T02:07:29;21.10;99.90
13808;DHT22;40769;51.512;5.494;2023-09-08T02:09:54;21.00;99.90
13808;DHT22;40769;51.512;5.494;2023-09-08T02:12:21;21.00;99.90
13808;DHT22;40769;51.512;5.494;2023-09-08T02:14:47;21.00;99.90
13808;DHT22;40769;51.512;5.494;2023-09-08T02:17:12;20.90;99.90
13808;DHT22;40769;51.512;5.494;2023-09-08T02:19:38;20.80;99.90
13808;DHT22;40769;51.512;5.494;2023-09-08T02:22:04;20.90;99.90
13808;DHT22;40769;51.512;5.494;2023-09-08T02:24:29;20.80;99.90
13808;DHT22;40769;51.512;5.494;2023-09-08T02:26:55;20.80;99.90
13808;DHT22;40769;51.512;5.494;2023-09-08T02:29:21;20.80;99.90
13808;DHT22;40769;51.512;5.494;2023-09-08T02:31:48;20.80;99.90
13808;DHT22;40769;51.512;5.494;2023-09-08T02:34:13;20.70;99.90
13808;DHT22;40769;51.512;5.494;2023-09-08T02:36:39;20.70;99.90
13808;DHT22;40769;51.512;5.494;2023-09-08T02:39:05;20.70;99.90
13808;DHT22;40769;51.512;5.494;2023-09-08T02:41:32;20.60;99.90
13808;DHT22;40769;51.512;5.494;2023-09-08T02:43:57;20.60;99.90
13808;DHT22;40769;51.512;5.494;2023-09-08T02:46:23;20.60;99.90
13808;DHT22;40769;51.512;5.494;2023-09-08T02:48:48;20.50;99.90
13808;DHT22;40769;51.512;5.494;2023-09-08T02:51:14;20.50;99.90
13808;DHT22;40769;51.512;5.494;2023-09-08T02:53:40;20.40;99.90
13808;DHT22;40769;51.512;5.494;2023-09-08T02:56:05;20.40;99.90
13808;DHT22;40769;51.512;5.494;2023-09-08T02:58:32;20.40;99.90
13808;DHT22;40769;51.512;5.494;2023-09-08T03:03:36;20.30;99.90
13808;DHT22;40769;51.512;5.494;2023-09-08T03:06:02;20.30;99.90
13808;DHT22;40769;51.512;5.494;2023-09-08T03:08:29;20.30;99.90
13808;DHT22;40769;51.512;5.494;2023-09-08T03:10:58;20.30;99.90
13808;DHT22;40769;51.512;5.494;2023-09-08T03:13:24;20.30;99.90
13808;DHT22;40769;51.512;5.494;2023-09-08T03:15:52;20.20;99.90
13808;DHT22;40769;51.512;5.494;2023-09-08T03:18:18;20.20;99.90
13808;DHT22;40769;51.512;5.494;2023-09-08T03:20:50;20.20;99.90
13808;DHT22;40769;51.512;5.494;2023-09-08T03:23:17;20.20;99.90
13808;DHT22;40769;51.512;5.494;2023-09-08T03:25:43;20.20;99.90
13808;DHT22;40769;51.512;5.494;2023-09-08T03:28:08;20.10;99.90
13808;DHT22;40769;51.512;5.494;2023-09-08T03:30:34;20.30;99.90
13808;DHT22;40769;51.512;5.494;2023-09-08T03:33:00;20.10;99.90
13808;DHT22;40769;51.512;5.494;2023-09-08T03:35:26;20.10;99.90
13808;DHT22;40769;51.512;5.494;2023-09-08T03:37:51;20.10;99.90
13808;DHT22;40769;51.512;5.494;2023-09-08T03:40:17;20.10;99.90
13808;DHT22;40769;51.512;5.494;2023-09-08T03:42:42;20.10;99.90
13808;DHT22;40769;51.512;5.494;2023-09-08T03:45:08;20.10;99.90
13808;DHT22;40769;51.512;5.494;2023-09-08T03:47:34;20.10;99.90
13808;DHT22;40769;51.512;5.494;2023-09-08T03:50:00;20.10;99.90
13808;DHT22;40769;51.512;5.494;2023-09-08T03:52:27;20.10;99.90
13808;DHT22;40769;51.512;5.494;2023-09-08T03:54:52;20.10;99.90
13808;DHT22;40769;51.512;5.494;2023-09-08T03:57:18;20.10;99.90
13808;DHT22;40769;51.512;5.494;2023-09-08T03:59:46;20.10;99.90
13808;DHT22;40769;51.512;5.494;2023-09-08T04:02:11;20.20;99.90
13808;DHT22;40769;51.512;5.494;2023-09-08T04:04:37;20.00;99.90
13808;DHT22;40769;51.512;5.494;2023-09-08T04:07:03;20.00;99.90
13808;DHT22;40769;51.512;5.494;2023-09-08T04:09:29;20.10;99.90
13808;DHT22;40769;51.512;5.494;2023-09-08T04:11:55;20.10;99.90
13808;DHT22;40769;51.512;5.494;2023-09-08T04:14:21;20.10;99.90
13808;DHT22;40769;51.512;5.494;2023-09-08T04:16:49;20.10;99.90
13808;DHT22;40769;51.512;5.494;2023-09-08T04:19:14;20.00;99.90
13808;DHT22;40769;51.512;5.494;2023-09-08T04:21:41;20.00;99.90
13808;DHT22;40769;51.512;5.494;2023-09-08T04:24:06;20.10;99.90
13808;DHT22;40769;51.512;5.494;2023-09-08T04:26:32;20.00;99.90
13808;DHT22;40769;51.512;5.494;2023-09-08T04:28:58;20.10;99.90
13808;DHT22;40769;51.512;5.494;2023-09-08T04:31:23;20.00;99.90
13808;DHT22;40769;51.512;5.494;2023-09-08T04:33:49;20.00;99.90
13808;DHT22;40769;51.512;5.494;2023-09-08T04:36:14;20.00;99.90
13808;DHT22;40769;51.512;5.494;2023-09-08T04:38:40;20.00;99.90
13808;DHT22;40769;51.512;5.494;2023-09-08T04:41:07;20.90;99.90
13808;DHT22;40769;51.512;5.494;2023-09-08T04:43:32;19.90;99.90
13808;DHT22;40769;51.512;5.494;2023-09-08T04:45:58;19.90;99.90
13808;DHT22;40769;51.512;5.494;2023-09-08T04:48:26;19.90;99.90
13808;DHT22;40769;51.512;5.494;2023-09-08T04:50:53;19.90;99.90
13808;DHT22;40769;51.512;5.494;2023-09-08T04:53:19;19.90;99.90
13808;DHT22;40769;51.512;5.494;2023-09-08T04:55:44;19.90;99.90
13808;DHT22;40769;51.512;5.494;2023-09-08T04:58:10;19.90;99.90
13808;DHT22;40769;51.512;5.494;2023-09-08T05:00:38;19.90;99.90
13808;DHT22;40769;51.512;5.494;2023-09-08T05:03:04;19.90;99.90
13808;DHT22;40769;51.512;5.494;2023-09-08T05:05:30;19.80;99.90
13808;DHT22;40769;51.512;5.494;2023-09-08T05:07:56;19.20;99.90
13808;DHT22;40769;51.512;5.494;2023-09-08T05:10:22;19.80;99.90
13808;DHT22;40769;51.512;5.494;2023-09-08T05:12:48;19.80;99.90
13808;DHT22;40769;51.512;5.494;2023-09-08T05:15:15;21.00;99.90
13808;DHT22;40769;51.512;5.494;2023-09-08T05:17:42;19.80;99.90
13808;DHT22;40769;51.512;5.494;2023-09-08T05:20:09;19.80;99.90
13808;DHT22;40769;51.512;5.494;2023-09-08T05:22:34;19.80;99.90
13808;DHT22;40769;51.512;5.494;2023-09-08T05:25:00;19.70;99.90
13808;DHT22;40769;51.512;5.494;2023-09-08T05:27:26;19.80;99.90
13808;DHT22;40769;51.512;5.494;2023-09-08T05:29:52;19.80;99.90
13808;DHT22;40769;51.512;5.494;2023-09-08T05:32:17;19.80;99.90
13808;DHT22;40769;51.512;5.494;2023-09-08T05:34:44;19.80;99.90
13808;DHT22;40769;51.512;5.494;2023-09-08T05:37:09;19.80;99.90
13808;DHT22;40769;51.512;5.494;2023-09-08T05:39:35;19.80;99.90
13808;DHT22;40769;51.512;5.494;2023-09-08T05:42:01;19.90;99.90
13808;DHT22;40769;51.512;5.494;2023-09-08T05:44:27;19.80;99.90
13808;DHT22;40769;51.512;5.494;2023-09-08T05:46:52;19.80;99.90
13808;DHT22;40769;51.512;5.494;2023-09-08T05:49:18;19.90;99.90
13808;DHT22;40769;51.512;5.494;2023-09-08T05:51:44;19.90;99.90
13808;DHT22;40769;51.512;5.494;2023-09-08T05:54:10;19.90;99.90
13808;DHT22;40769;51.512;5.494;2023-09-08T05:56:37;19.90;99.90
13808;DHT22;40769;51.512;5.494;2023-09-08T05:59:03;19.90;99.90
13808;DHT22;40769;51.512;5.494;2023-09-08T06:01:30;20.00;99.90
13808;DHT22;40769;51.512;5.494;2023-09-08T06:03:56;20.60;99.90
13808;DHT22;40769;51.512;5.494;2023-09-08T06:06:22;20.10;99.90
13808;DHT22;40769;51.512;5.494;2023-09-08T06:08:48;20.10;99.90
13808;DHT22;40769;51.512;5.494;2023-09-08T06:11:14;20.10;99.90
13808;DHT22;40769;51.512;5.494;2023-09-08T06:13:39;20.20;99.90
13808;DHT22;40769;51.512;5.494;2023-09-08T06:16:05;20.20;99.90
13808;DHT22;40769;51.512;5.494;2023-09-08T06:18:31;20.30;99.90
13808;DHT22;40769;51.512;5.494;2023-09-08T06:20:57;20.40;99.90
13808;DHT22;40769;51.512;5.494;2023-09-08T06:23:22;20.70;99.90
13808;DHT22;40769;51.512;5.494;2023-09-08T06:25:49;20.90;99.90
13808;DHT22;40769;51.512;5.494;2023-09-08T06:28:15;21.10;99.90
13808;DHT22;40769;51.512;5.494;2023-09-08T06:30:40;21.40;99.90
13808;DHT22;40769;51.512;5.494;2023-09-08T06:33:09;21.70;99.90
13808;DHT22;40769;51.512;5.494;2023-09-08T06:35:34;22.00;99.90
13808;DHT22;40769;51.512;5.494;2023-09-08T06:38:00;22.30;99.90
13808;DHT22;40769;51.512;5.494;2023-09-08T06:40:26;22.60;99.90
13808;DHT22;40769;51.512;5.494;2023-09-08T06:42:52;22.90;99.90
13808;DHT22;40769;51.512;5.494;2023-09-08T06:45:17;23.20;99.90
13808;DHT22;40769;51.512;5.494;2023-09-08T06:47:43;24.40;99.90
13808;DHT22;40769;51.512;5.494;2023-09-08T06:50:09;23.90;99.90
13808;DHT22;40769;51.512;5.494;2023-09-08T06:52:35;24.20;99.90
13808;DHT22;40769;51.512;5.494;2023-09-08T06:55:01;24.40;99.90
13808;DHT22;40769;51.512;5.494;2023-09-08T06:57:27;24.70;99.90
13808;DHT22;40769;51.512;5.494;2023-09-08T06:59:53;24.90;99.90
13808;DHT22;40769;51.512;5.494;2023-09-08T07:02:18;25.10;99.90
13808;DHT22;40769;51.512;5.494;2023-09-08T07:04:44;25.40;99.90
13808;DHT22;40769;51.512;5.494;2023-09-08T07:07:10;25.50;99.90
13808;DHT22;40769;51.512;5.494;2023-09-08T07:09:39;25.70;99.90
13808;DHT22;40769;51.512;5.494;2023-09-08T07:12:05;25.90;99.90
13808;DHT22;40769;51.512;5.494;2023-09-08T07:14:34;26.20;99.90
13808;DHT22;40769;51.512;5.494;2023-09-08T07:17:00;26.40;99.90
13808;DHT22;40769;51.512;5.494;2023-09-08T07:19:26;26.70;99.90
13808;DHT22;40769;51.512;5.494;2023-09-08T07:21:55;27.00;99.90
13808;DHT22;40769;51.512;5.494;2023-09-08T07:24:21;27.20;99.90
13808;DHT22;40769;51.512;5.494;2023-09-08T07:26:47;27.40;99.90
13808;DHT22;40769;51.512;5.494;2023-09-08T07:29:14;27.60;99.90
13808;DHT22;40769;51.512;5.494;2023-09-08T07:31:39;27.90;99.90
13808;DHT22;40769;51.512;5.494;2023-09-08T07:34:05;28.10;99.90
13808;DHT22;40769;51.512;5.494;2023-09-08T07:36:30;28.40;99.90
13808;DHT22;40769;51.512;5.494;2023-09-08T07:38:57;28.60;99.90
13808;DHT22;40769;51.512;5.494;2023-09-08T07:41:22;28.80;99.90
13808;DHT22;40769;51.512;5.494;2023-09-08T07:43:48;29.00;99.90
13808;DHT22;40769;51.512;5.494;2023-09-08T07:46:16;29.20;99.90
13808;DHT22;40769;51.512;5.494;2023-09-08T07:48:41;29.40;99.90
13808;DHT22;40769;51.512;5.494;2023-09-08T07:51:07;29.60;99.90
13808;DHT22;40769;51.512;5.494;2023-09-08T07:53:33;29.80;99.90
13808;DHT22;40769;51.512;5.494;2023-09-08T07:55:58;30.10;99.90
13808;DHT22;40769;51.512;5.494;2023-09-08T07:58:24;30.30;99.90
13808;DHT22;40769;51.512;5.494;2023-09-08T08:00:50;30.50;99.90
13808;DHT22;40769;51.512;5.494;2023-09-08T08:03:15;30.80;99.90
13808;DHT22;40769;51.512;5.494;2023-09-08T08:05:41;31.00;99.90
13808;DHT22;40769;51.512;5.494;2023-09-08T08:08:06;31.20;99.90
13808;DHT22;40769;51.512;5.494;2023-09-08T08:10:34;31.50;99.90
13808;DHT22;40769;51.512;5.494;2023-09-08T08:13:00;31.70;99.90
13808;DHT22;40769;51.512;5.494;2023-09-08T08:15:38;32.00;99.90
13808;DHT22;40769;51.512;5.494;2023-09-08T08:18:05;32.20;99.90
13808;DHT22;40769;51.512;5.494;2023-09-08T08:20:31;32.30;99.90
13808;DHT22;40769;51.512;5.494;2023-09-08T08:23:01;32.50;99.90
13808;DHT22;40769;51.512;5.494;2023-09-08T08:25:27;32.70;99.90
13808;DHT22;40769;51.512;5.494;2023-09-08T08:27:52;32.90;99.90
13808;DHT22;40769;51.512;5.494;2023-09-08T08:30:18;33.10;99.90
13808;DHT22;40769;51.512;5.494;2023-09-08T08:32:43;33.30;99.90
13808;DHT22;40769;51.512;5.494;2023-09-08T08:35:09;33.50;99.90
13808;DHT22;40769;51.512;5.494;2023-09-08T08:37:35;33.60;99.90
13808;DHT22;40769;51.512;5.494;2023-09-08T08:40:01;33.90;99.90
13808;DHT22;40769;51.512;5.494;2023-09-08T08:42:32;34.00;99.90
13808;DHT22;40769;51.512;5.494;2023-09-08T08:44:58;34.10;99.90
13808;DHT22;40769;51.512;5.494;2023-09-08T08:47:25;34.20;99.90
13808;DHT22;40769;51.512;5.494;2023-09-08T08:49:53;34.30;99.90
13808;DHT22;40769;51.512;5.494;2023-09-08T08:52:20;34.40;99.90
13808;DHT22;40769;51.512;5.494;2023-09-08T08:54:46;34.50;99.90
13808;DHT22;40769;51.512;5.494;2023-09-08T08:57:12;34.60;99.90
13808;DHT22;40769;51.512;5.494;2023-09-08T08:59:39;34.80;99.90
13808;DHT22;40769;51.512;5.494;2023-09-08T09:02:08;34.90;99.90
13808;DHT22;40769;51.512;5.494;2023-09-08T09:04:36;35.10;99.90
13808;DHT22;40769;51.512;5.494;2023-09-08T09:07:03;35.20;99.90
13808;DHT22;40769;51.512;5.494;2023-09-08T09:09:29;35.30;99.90
13808;DHT22;40769;51.512;5.494;2023-09-08T09:11:55;35.50;99.90
13808;DHT22;40769;51.512;5.494;2023-09-08T09:14:21;35.50;99.90
13808;DHT22;40769;51.512;5.494;2023-09-08T09:16:48;35.60;99.90
13808;DHT22;40769;51.512;5.494;2023-09-08T09:19:22;35.70;99.90
13808;DHT22;40769;51.512;5.494;2023-09-08T09:21:53;35.70;99.90
13808;DHT22;40769;51.512;5.494;2023-09-08T09:24:29;35.80;99.90
13808;DHT22;40769;51.512;5.494;2023-09-08T09:26:56;35.90;99.90
13808;DHT22;40769;51.512;5.494;2023-09-08T09:29:22;36.00;99.90
13808;DHT22;40769;51.512;5.494;2023-09-08T09:32:06;36.00;99.90
13808;DHT22;40769;51.512;5.494;2023-09-08T09:34:35;36.10;99.90
13808;DHT22;40769;51.512;5.494;2023-09-08T09:37:01;36.20;99.90
13808;DHT22;40769;51.512;5.494;2023-09-08T09:39:28;36.30;99.90
13808;DHT22;40769;51.512;5.494;2023-09-08T09:41:58;36.40;99.90
13808;DHT22;40769;51.512;5.494;2023-09-08T09:44:24;36.40;99.90
13808;DHT22;40769;51.512;5.494;2023-09-08T09:46:54;36.50;99.90
13808;DHT22;40769;51.512;5.494;2023-09-08T09:49:20;36.60;99.90
13808;DHT22;40769;51.512;5.494;2023-09-08T09:51:47;36.70;99.90
13808;DHT22;40769;51.512;5.494;2023-09-08T09:54:15;36.70;99.90
13808;DHT22;40769;51.512;5.494;2023-09-08T09:56:41;36.80;99.90
13808;DHT22;40769;51.512;5.494;2023-09-08T09:59:11;36.80;99.90
13808;DHT22;40769;51.512;5.494;2023-09-08T10:01:38;36.90;99.90
13808;DHT22;40769;51.512;5.494;2023-09-08T10:04:05;37.00;99.90
13808;DHT22;40769;51.512;5.494;2023-09-08T10:06:32;37.00;99.90
13808;DHT22;40769;51.512;5.494;2023-09-08T10:09:03;37.10;99.90
13808;DHT22;40769;51.512;5.494;2023-09-08T10:11:49;37.10;99.90
13808;DHT22;40769;51.512;5.494;2023-09-08T10:14:16;37.20;99.90
13808;DHT22;40769;51.512;5.494;2023-09-08T10:16:44;37.20;99.90
13808;DHT22;40769;51.512;5.494;2023-09-08T10:19:11;37.20;99.90
13808;DHT22;40769;51.512;5.494;2023-09-08T10:21:41;37.30;99.90
13808;DHT22;40769;51.512;5.494;2023-09-08T10:24:33;37.30;99.90
13808;DHT22;40769;51.512;5.494;2023-09-08T10:27:11;37.30;99.90
13808;DHT22;40769;51.512;5.494;2023-09-08T10:29:37;37.40;99.90
13808;DHT22;40769;51.512;5.494;2023-09-08T10:32:06;37.40;99.90
13808;DHT22;40769;51.512;5.494;2023-09-08T10:34:33;37.50;99.90
13808;DHT22;40769;51.512;5.494;2023-09-08T10:37:00;37.50;99.90
13808;DHT22;40769;51.512;5.494;2023-09-08T10:39:29;37.50;99.90
13808;DHT22;40769;51.512;5.494;2023-09-08T10:47:54;37.80;99.90
13808;DHT22;40769;51.512;5.494;2023-09-08T10:50:32;38.00;99.30
13808;DHT22;40769;51.512;5.494;2023-09-08T10:53:14;38.30;99.20
13808;DHT22;40769;51.512;5.494;2023-09-08T10:55:42;38.10;98.80
13808;DHT22;40769;51.512;5.494;2023-09-08T10:58:11;38.20;99.40
13808;DHT22;40769;51.512;5.494;2023-09-08T11:00:47;38.30;98.70
13808;DHT22;40769;51.512;5.494;2023-09-08T11:03:42;38.50;98.40
13808;DHT22;40769;51.512;5.494;2023-09-08T11:06:09;38.60;98.00
13808;DHT22;40769;51.512;5.494;2023-09-08T11:08:38;38.70;98.20
13808;DHT22;40769;51.512;5.494;2023-09-08T11:11:04;38.70;97.40
13808;DHT22;40769;51.512;5.494;2023-09-08T11:13:29;38.80;97.50
13808;DHT22;40769;51.512;5.494;2023-09-08T11:15:56;38.80;97.40
13808;DHT22;40769;51.512;5.494;2023-09-08T11:18:32;38.80;97.00
13808;DHT22;40769;51.512;5.494;2023-09-08T11:21:00;38.90;96.20
13808;DHT22;40769;51.512;5.494;2023-09-08T11:23:27;39.00;96.50
13808;DHT22;40769;51.512;5.494;2023-09-08T11:25:53;39.00;95.80
13808;DHT22;40769;51.512;5.494;2023-09-08T11:28:21;39.10;95.50
13808;DHT22;40769;51.512;5.494;2023-09-08T11:30:48;39.10;94.90
13808;DHT22;40769;51.512;5.494;2023-09-08T11:33:18;39.10;94.90
13808;DHT22;40769;51.512;5.494;2023-09-08T11:35:47;39.10;94.20
13808;DHT22;40769;51.512;5.494;2023-09-08T11:38:13;39.20;94.30
13808;DHT22;40769;51.512;5.494;2023-09-08T11:40:40;39.20;94.20
13808;DHT22;40769;51.512;5.494;2023-09-08T11:43:06;39.20;93.90
13808;DHT22;40769;51.512;5.494;2023-09-08T11:45:36;39.20;93.80
13808;DHT22;40769;51.512;5.494;2023-09-08T11:48:03;39.30;93.00
13808;DHT22;40769;51.512;5.494;2023-09-08T11:50:29;39.30;93.30
13808;DHT22;40769;51.512;5.494;2023-09-08T11:52:55;39.40;93.10
13808;DHT22;40769;51.512;5.494;2023-09-08T11:55:23;39.50;92.90
13808;DHT22;40769;51.512;5.494;2023-09-08T11:57:51;39.50;92.70
13808;DHT22;40769;51.512;5.494;2023-09-08T12:00:20;39.60;92.20
13808;DHT22;40769;51.512;5.494;2023-09-08T12:02:48;39.60;92.10
13808;DHT22;40769;51.512;5.494;2023-09-08T12:05:25;39.60;91.70
13808;DHT22;40769;51.512;5.494;2023-09-08T12:07:56;39.70;91.20
13808;DHT22;40769;51.512;5.494;2023-09-08T12:10:23;39.70;91.00
13808;DHT22;40769;51.512;5.494;2023-09-08T12:12:50;39.70;91.10
13808;DHT22;40769;51.512;5.494;2023-09-08T12:18:03;39.60;90.00
13808;DHT22;40769;51.512;5.494;2023-09-08T12:20:29;39.60;90.40
13808;DHT22;40769;51.512;5.494;2023-09-08T12:23:01;39.60;90.30
13808;DHT22;40769;51.512;5.494;2023-09-08T12:25:27;39.60;90.10
13808;DHT22;40769;51.512;5.494;2023-09-08T12:27:54;39.60;90.10
13808;DHT22;40769;51.512;5.494;2023-09-08T12:30:23;39.60;90.10
13808;DHT22;40769;51.512;5.494;2023-09-08T12:32:58;39.60;89.50
13808;DHT22;40769;51.512;5.494;2023-09-08T12:35:25;39.70;89.60
13808;DHT22;40769;51.512;5.494;2023-09-08T12:37:58;39.60;88.90
13808;DHT22;40769;51.512;5.494;2023-09-08T12:40:26;39.70;87.90
13808;DHT22;40769;51.512;5.494;2023-09-08T12:42:52;39.70;88.50
13808;DHT22;40769;51.512;5.494;2023-09-08T12:45:19;39.60;87.80
13808;DHT22;40769;51.512;5.494;2023-09-08T12:47:45;39.60;87.50
13808;DHT22;40769;51.512;5.494;2023-09-08T12:50:11;39.70;87.50
13808;DHT22;40769;51.512;5.494;2023-09-08T12:52:38;39.60;87.50
13808;DHT22;40769;51.512;5.494;2023-09-08T12:55:04;39.70;87.10
13808;DHT22;40769;51.512;5.494;2023-09-08T12:57:30;39.70;86.90
13808;DHT22;40769;51.512;5.494;2023-09-08T12:59:56;39.60;86.40
13808;DHT22;40769;51.512;5.494;2023-09-08T13:02:22;39.70;85.90
13808;DHT22;40769;51.512;5.494;2023-09-08T13:04:47;39.60;85.70
13808;DHT22;40769;51.512;5.494;2023-09-08T13:07:17;39.60;86.00
13808;DHT22;40769;51.512;5.494;2023-09-08T13:09:43;39.60;85.90
13808;DHT22;40769;51.512;5.494;2023-09-08T13:12:08;39.70;85.80
13808;DHT22;40769;51.512;5.494;2023-09-08T13:14:35;39.80;85.70
13808;DHT22;40769;51.512;5.494;2023-09-08T13:17:02;39.80;85.10
13808;DHT22;40769;51.512;5.494;2023-09-08T13:19:27;39.90;84.90
13808;DHT22;40769;51.512;5.494;2023-09-08T13:21:53;39.90;84.80
13808;DHT22;40769;51.512;5.494;2023-09-08T13:24:18;40.00;84.90
13808;DHT22;40769;51.512;5.494;2023-09-08T13:26:46;40.10;84.00
13808;DHT22;40769;51.512;5.494;2023-09-08T13:29:11;40.20;83.30
13808;DHT22;40769;51.512;5.494;2023-09-08T13:31:37;40.30;82.50
13808;DHT22;40769;51.512;5.494;2023-09-08T13:34:03;40.40;82.40
13808;DHT22;40769;51.512;5.494;2023-09-08T13:36:29;40.40;82.00
13808;DHT22;40769;51.512;5.494;2023-09-08T13:38:54;40.50;81.50
13808;DHT22;40769;51.512;5.494;2023-09-08T13:41:20;40.90;81.70
13808;DHT22;40769;51.512;5.494;2023-09-08T13:43:46;40.60;80.80
13808;DHT22;40769;51.512;5.494;2023-09-08T13:46:11;40.60;80.00
13808;DHT22;40769;51.512;5.494;2023-09-08T13:48:37;40.60;80.00
13808;DHT22;40769;51.512;5.494;2023-09-08T13:51:06;40.60;79.90
13808;DHT22;40769;51.512;5.494;2023-09-08T13:53:31;40.60;79.90
13808;DHT22;40769;51.512;5.494;2023-09-08T13:55:57;40.70;80.10
13808;DHT22;40769;51.512;5.494;2023-09-08T13:58:23;40.70;80.30
13808;DHT22;40769;51.512;5.494;2023-09-08T14:00:48;40.80;79.60
13808;DHT22;40769;51.512;5.494;2023-09-08T14:03:16;40.90;79.20
13808;DHT22;40769;51.512;5.494;2023-09-08T14:05:42;40.90;78.80
13808;DHT22;40769;51.512;5.494;2023-09-08T14:08:07;40.80;78.40
13808;DHT22;40769;51.512;5.494;2023-09-08T14:10:33;40.80;77.80
13808;DHT22;40769;51.512;5.494;2023-09-08T14:12:59;40.90;77.60
13808;DHT22;40769;51.512;5.494;2023-09-08T14:15:25;40.80;77.40
13808;DHT22;40769;51.512;5.494;2023-09-08T14:17:50;40.90;77.20
13808;DHT22;40769;51.512;5.494;2023-09-08T14:20:16;40.80;77.30
13808;DHT22;40769;51.512;5.494;2023-09-08T14:22:42;40.90;77.20
13808;DHT22;40769;51.512;5.494;2023-09-08T14:25:08;40.90;77.30
13808;DHT22;40769;51.512;5.494;2023-09-08T14:27:34;40.90;77.00
13808;DHT22;40769;51.512;5.494;2023-09-08T14:30:00;41.10;76.90
13808;DHT22;40769;51.512;5.494;2023-09-08T14:32:26;41.10;76.30
13808;DHT22;40769;51.512;5.494;2023-09-08T14:34:51;41.20;76.00
13808;DHT22;40769;51.512;5.494;2023-09-08T14:37:17;41.20;75.70
13808;DHT22;40769;51.512;5.494;2023-09-08T14:39:43;41.30;75.90
13808;DHT22;40769;51.512;5.494;2023-09-08T14:42:08;41.30;76.30
13808;DHT22;40769;51.512;5.494;2023-09-08T14:44:35;41.40;76.50
13808;DHT22;40769;51.512;5.494;2023-09-08T14:47:00;41.50;76.50
13808;DHT22;40769;51.512;5.494;2023-09-08T14:49:26;41.50;76.00
13808;DHT22;40769;51.512;5.494;2023-09-08T14:51:52;41.60;75.50
13808;DHT22;40769;51.512;5.494;2023-09-08T14:54:17;41.50;75.50
13808;DHT22;40769;51.512;5.494;2023-09-08T14:56:43;41.50;74.00
13808;DHT22;40769;51.512;5.494;2023-09-08T14:59:09;41.40;74.00
13808;DHT22;40769;51.512;5.494;2023-09-08T15:01:34;41.30;74.10
13808;DHT22;40769;51.512;5.494;2023-09-08T15:04:01;41.20;75.00
13808;DHT22;40769;51.512;5.494;2023-09-08T15:06:26;41.20;74.40
13808;DHT22;40769;51.512;5.494;2023-09-08T15:08:52;41.10;74.50
13808;DHT22;40769;51.512;5.494;2023-09-08T15:11:18;41.00;74.60
13808;DHT22;40769;51.512;5.494;2023-09-08T15:13:44;41.00;74.90
13808;DHT22;40769;51.512;5.494;2023-09-08T15:16:10;41.00;75.10
13808;DHT22;40769;51.512;5.494;2023-09-08T15:18:35;40.90;73.80
13808;DHT22;40769;51.512;5.494;2023-09-08T15:21:01;40.90;73.30
13808;DHT22;40769;51.512;5.494;2023-09-08T15:23:27;41.00;73.20
13808;DHT22;40769;51.512;5.494;2023-09-08T15:25:53;40.90;73.00
13808;DHT22;40769;51.512;5.494;2023-09-08T15:28:19;41.00;72.80
13808;DHT22;40769;51.512;5.494;2023-09-08T15:30:49;40.90;72.10
13808;DHT22;40769;51.512;5.494;2023-09-08T15:33:15;41.00;71.40
13808;DHT22;40769;51.512;5.494;2023-09-08T15:35:42;41.00;71.40
13808;DHT22;40769;51.512;5.494;2023-09-08T15:38:08;41.00;71.20
13808;DHT22;40769;51.512;5.494;2023-09-08T15:40:34;41.10;71.20